sensor_id;sensor_type;location;lat;lon;timestamp;P1;durP1;ratioP1;P2;durP2;ratioP2
38843;SDS011;24596;48.080;8.362;2022-12-18T00:01:02;33.33;;;12.13;;
38843;SDS011;24596;48.080;8.362;2022-12-18T00:03:34;29.70;;;13.97;;
38843;SDS011;24596;48.080;8.362;2022-12-18T00:06:00;84.77;;;43.60;;
38843;SDS011;24596;48.080;8.362;2022-12-18T00:08:25;98.33;;;47.43;;
38843;SDS011;24596;48.080;8.362;2022-12-18T00:10:50;65.37;;;32.67;;
38843;SDS011;24596;48.080;8.362;2022-12-18T00:13:15;60.10;;;30.60;;
38843;SDS011;24596;48.080;8.362;2022-12-18T00:15:41;50.83;;;24.70;;
38843;SDS011;24596;48.080;8.362;2022-12-18T00:18:06;42.40;;;21.30;;
38843;SDS011;24596;48.080;8.362;2022-12-18T00:20:35;37.90;;;19.30;;
38843;SDS011;24596;48.080;8.362;2022-12-18T00:23:00;33.07;;;15.20;;
38843;SDS011;24596;48.080;8.362;2022-12-18T00:25:25;31.47;;;14.93;;
38843;SDS011;24596;48.080;8.362;2022-12-18T00:27:50;34.00;;;14.53;;
38843;SDS011;24596;48.080;8.362;2022-12-18T00:30:16;33.67;;;13.53;;
38843;SDS011;24596;48.080;8.362;2022-12-18T00:32:41;27.77;;;12.70;;
38843;SDS011;24596;48.080;8.362;2022-12-18T00:35:06;28.57;;;13.23;;
38843;SDS011;24596;48.080;8.362;2022-12-18T00:37:35;30.53;;;13.13;;
38843;SDS011;24596;48.080;8.362;2022-12-18T00:40:00;28.63;;;11.23;;
38843;SDS011;24596;48.080;8.362;2022-12-18T00:42:25;32.63;;;14.93;;
38843;SDS011;24596;48.080;8.362;2022-12-18T00:45:09;42.47;;;20.47;;
38843;SDS011;24596;48.080;8.362;2022-12-18T00:47:34;40.10;;;16.53;;
38843;SDS011;24596;48.080;8.362;2022-12-18T00:50:00;34.37;;;13.87;;
38843;SDS011;24596;48.080;8.362;2022-12-18T00:52:25;54.07;;;18.83;;
38843;SDS011;24596;48.080;8.362;2022-12-18T00:54:50;36.20;;;14.17;;
38843;SDS011;24596;48.080;8.362;2022-12-18T00:57:15;32.37;;;12.63;;
38843;SDS011;24596;48.080;8.362;2022-12-18T00:59:40;30.33;;;13.27;;
38843;SDS011;24596;48.080;8.362;2022-12-18T01:02:05;29.90;;;11.37;;
38843;SDS011;24596;48.080;8.362;2022-12-18T01:04:31;26.70;;;11.50;;
38843;SDS011;24596;48.080;8.362;2022-12-18T01:06:59;19.67;;;9.53;;
38843;SDS011;24596;48.080;8.362;2022-12-18T01:09:24;17.83;;;7.80;;
38843;SDS011;24596;48.080;8.362;2022-12-18T01:11:49;23.97;;;9.77;;
38843;SDS011;24596;48.080;8.362;2022-12-18T01:14:15;20.67;;;8.80;;
38843;SDS011;24596;48.080;8.362;2022-12-18T01:16:40;72.13;;;35.63;;
38843;SDS011;24596;48.080;8.362;2022-12-18T01:19:05;69.57;;;35.83;;
38843;SDS011;24596;48.080;8.362;2022-12-18T01:21:34;47.43;;;24.10;;
38843;SDS011;24596;48.080;8.362;2022-12-18T01:24:00;36.40;;;18.70;;
38843;SDS011;24596;48.080;8.362;2022-12-18T01:26:25;30.37;;;13.03;;
38843;SDS011;24596;48.080;8.362;2022-12-18T01:28:53;27.70;;;12.50;;
38843;SDS011;24596;48.080;8.362;2022-12-18T01:34:16;27.57;;;11.70;;
38843;SDS011;24596;48.080;8.362;2022-12-18T01:36:41;26.07;;;11.43;;
38843;SDS011;24596;48.080;8.362;2022-12-18T01:39:11;25.57;;;11.27;;
38843;SDS011;24596;48.080;8.362;2022-12-18T01:41:36;28.90;;;11.93;;
38843;SDS011;24596;48.080;8.362;2022-12-18T01:47:05;27.67;;;10.93;;
38843;SDS011;24596;48.080;8.362;2022-12-18T01:49:30;26.70;;;10.47;;
38843;SDS011;24596;48.080;8.362;2022-12-18T01:51:55;24.53;;;9.63;;
38843;SDS011;24596;48.080;8.362;2022-12-18T01:54:23;28.17;;;10.73;;
38843;SDS011;24596;48.080;8.362;2022-12-18T01:56:48;32.30;;;12.23;;
38843;SDS011;24596;48.080;8.362;2022-12-18T01:59:13;29.07;;;11.83;;
38843;SDS011;24596;48.080;8.362;2022-12-18T02:01:42;30.00;;;12.90;;
38843;SDS011;24596;48.080;8.362;2022-12-18T02:04:21;27.63;;;12.27;;
38843;SDS011;24596;48.080;8.362;2022-12-18T02:06:46;29.23;;;11.60;;
38843;SDS011;24596;48.080;8.362;2022-12-18T02:09:18;29.50;;;12.40;;
38843;SDS011;24596;48.080;8.362;2022-12-18T02:16:45;32.43;;;12.37;;
38843;SDS011;24596;48.080;8.362;2022-12-18T02:22:04;31.17;;;12.13;;
38843;SDS011;24596;48.080;8.362;2022-12-18T02:24:36;28.23;;;12.57;;
38843;SDS011;24596;48.080;8.362;2022-12-18T02:27:05;30.00;;;12.10;;
38843;SDS011;24596;48.080;8.362;2022-12-18T02:29:33;27.07;;;12.17;;
38843;SDS011;24596;48.080;8.362;2022-12-18T02:32:00;23.97;;;11.37;;
38843;SDS011;24596;48.080;8.362;2022-12-18T02:34:28;27.97;;;10.80;;
38843;SDS011;24596;48.080;8.362;2022-12-18T02:36:54;28.43;;;12.53;;
38843;SDS011;24596;48.080;8.362;2022-12-18T02:39:21;29.37;;;11.90;;
38843;SDS011;24596;48.080;8.362;2022-12-18T02:41:48;30.70;;;12.20;;
38843;SDS011;24596;48.080;8.362;2022-12-18T02:44:14;32.93;;;13.43;;
38843;SDS011;24596;48.080;8.362;2022-12-18T02:46:41;29.63;;;11.37;;
38843;SDS011;24596;48.080;8.362;2022-12-18T02:56:46;29.93;;;12.27;;
38843;SDS011;24596;48.080;8.362;2022-12-18T02:59:37;29.00;;;11.77;;
38843;SDS011;24596;48.080;8.362;2022-12-18T03:02:07;25.53;;;11.90;;
38843;SDS011;24596;48.080;8.362;2022-12-18T03:07:05;28.00;;;11.30;;
38843;SDS011;24596;48.080;8.362;2022-12-18T03:09:37;30.23;;;11.43;;
38843;SDS011;24596;48.080;8.362;2022-12-18T03:12:06;23.47;;;10.67;;
38843;SDS011;24596;48.080;8.362;2022-12-18T03:14:47;27.13;;;10.43;;
38843;SDS011;24596;48.080;8.362;2022-12-18T03:17:15;22.90;;;11.27;;
38843;SDS011;24596;48.080;8.362;2022-12-18T03:19:42;31.63;;;11.23;;
38843;SDS011;24596;48.080;8.362;2022-12-18T03:22:09;27.90;;;12.00;;
38843;SDS011;24596;48.080;8.362;2022-12-18T03:24:35;27.50;;;11.93;;
38843;SDS011;24596;48.080;8.362;2022-12-18T03:27:05;26.77;;;12.00;;
38843;SDS011;24596;48.080;8.362;2022-12-18T03:29:32;27.47;;;11.07;;
38843;SDS011;24596;48.080;8.362;2022-12-18T03:32:01;27.57;;;11.17;;
38843;SDS011;24596;48.080;8.362;2022-12-18T03:34:31;25.93;;;11.13;;
38843;SDS011;24596;48.080;8.362;2022-12-18T03:36:57;25.50;;;11.33;;
38843;SDS011;24596;48.080;8.362;2022-12-18T03:39:23;24.53;;;11.40;;
38843;SDS011;24596;48.080;8.362;2022-12-18T03:47:15;28.83;;;12.07;;
38843;SDS011;24596;48.080;8.362;2022-12-18T03:49:48;29.60;;;11.80;;
38843;SDS011;24596;48.080;8.362;2022-12-18T03:52:20;28.90;;;11.53;;
38843;SDS011;24596;48.080;8.362;2022-12-18T03:57:14;29.17;;;12.17;;
38843;SDS011;24596;48.080;8.362;2022-12-18T03:59:40;37.90;;;12.97;;
38843;SDS011;24596;48.080;8.362;2022-12-18T04:02:06;33.67;;;13.80;;
38843;SDS011;24596;48.080;8.362;2022-12-18T04:04:32;31.67;;;13.67;;
38843;SDS011;24596;48.080;8.362;2022-12-18T04:06:58;30.87;;;13.43;;
38843;SDS011;24596;48.080;8.362;2022-12-18T04:09:24;33.97;;;12.97;;
38843;SDS011;24596;48.080;8.362;2022-12-18T04:11:50;29.73;;;11.33;;
38843;SDS011;24596;48.080;8.362;2022-12-18T04:14:16;29.70;;;11.97;;
38843;SDS011;24596;48.080;8.362;2022-12-18T04:16:41;29.77;;;10.83;;
38843;SDS011;24596;48.080;8.362;2022-12-18T04:19:06;26.93;;;11.77;;
38843;SDS011;24596;48.080;8.362;2022-12-18T04:21:31;32.17;;;12.50;;
38843;SDS011;24596;48.080;8.362;2022-12-18T04:23:57;29.43;;;12.13;;
38843;SDS011;24596;48.080;8.362;2022-12-18T04:26:22;33.53;;;12.70;;
38843;SDS011;24596;48.080;8.362;2022-12-18T04:28:47;30.27;;;13.23;;
38843;SDS011;24596;48.080;8.362;2022-12-18T04:31:12;28.57;;;12.93;;
38843;SDS011;24596;48.080;8.362;2022-12-18T04:33:38;30.53;;;13.03;;
38843;SDS011;24596;48.080;8.362;2022-12-18T04:36:03;31.57;;;11.67;;
38843;SDS011;24596;48.080;8.362;2022-12-18T04:38:28;32.87;;;13.27;;
38843;SDS011;24596;48.080;8.362;2022-12-18T04:40:53;30.47;;;12.93;;
38843;SDS011;24596;48.080;8.362;2022-12-18T04:43:19;31.67;;;11.53;;
38843;SDS011;24596;48.080;8.362;2022-12-18T04:45:44;28.57;;;11.33;;
38843;SDS011;24596;48.080;8.362;2022-12-18T04:48:09;30.47;;;11.13;;
38843;SDS011;24596;48.080;8.362;2022-12-18T04:50:34;26.90;;;11.23;;
38843;SDS011;24596;48.080;8.362;2022-12-18T04:53:00;26.43;;;11.47;;
38843;SDS011;24596;48.080;8.362;2022-12-18T04:55:25;28.47;;;10.93;;
38843;SDS011;24596;48.080;8.362;2022-12-18T04:57:50;27.83;;;11.17;;
38843;SDS011;24596;48.080;8.362;2022-12-18T05:00:16;23.87;;;11.00;;
38843;SDS011;24596;48.080;8.362;2022-12-18T05:02:41;26.57;;;11.07;;
38843;SDS011;24596;48.080;8.362;2022-12-18T05:05:06;22.83;;;9.33;;
38843;SDS011;24596;48.080;8.362;2022-12-18T05:07:32;25.97;;;10.00;;
38843;SDS011;24596;48.080;8.362;2022-12-18T05:09:57;26.10;;;11.40;;
38843;SDS011;24596;48.080;8.362;2022-12-18T05:12:22;21.50;;;10.07;;
38843;SDS011;24596;48.080;8.362;2022-12-18T05:14:48;26.27;;;10.80;;
38843;SDS011;24596;48.080;8.362;2022-12-18T05:17:13;23.03;;;10.30;;
38843;SDS011;24596;48.080;8.362;2022-12-18T05:19:38;29.10;;;11.03;;
38843;SDS011;24596;48.080;8.362;2022-12-18T05:22:03;27.47;;;11.57;;
38843;SDS011;24596;48.080;8.362;2022-12-18T05:24:28;27.20;;;11.07;;
38843;SDS011;24596;48.080;8.362;2022-12-18T05:26:54;25.63;;;11.27;;
38843;SDS011;24596;48.080;8.362;2022-12-18T05:29:19;26.67;;;10.83;;
38843;SDS011;24596;48.080;8.362;2022-12-18T05:31:44;24.97;;;10.20;;
38843;SDS011;24596;48.080;8.362;2022-12-18T05:34:09;24.80;;;11.03;;
38843;SDS011;24596;48.080;8.362;2022-12-18T05:36:35;23.50;;;11.17;;
38843;SDS011;24596;48.080;8.362;2022-12-18T05:39:00;26.27;;;10.43;;
38843;SDS011;24596;48.080;8.362;2022-12-18T05:41:25;29.63;;;10.57;;
38843;SDS011;24596;48.080;8.362;2022-12-18T05:43:50;23.07;;;9.97;;
38843;SDS011;24596;48.080;8.362;2022-12-18T05:46:16;24.47;;;10.13;;
38843;SDS011;24596;48.080;8.362;2022-12-18T05:48:42;28.70;;;11.63;;
38843;SDS011;24596;48.080;8.362;2022-12-18T05:51:11;29.83;;;11.73;;
38843;SDS011;24596;48.080;8.362;2022-12-18T05:53:37;29.57;;;12.13;;
38843;SDS011;24596;48.080;8.362;2022-12-18T05:56:03;28.77;;;11.57;;
38843;SDS011;24596;48.080;8.362;2022-12-18T05:58:29;23.10;;;11.07;;
38843;SDS011;24596;48.080;8.362;2022-12-18T06:00:54;27.03;;;11.57;;
38843;SDS011;24596;48.080;8.362;2022-12-18T06:03:19;33.17;;;12.63;;
38843;SDS011;24596;48.080;8.362;2022-12-18T06:05:45;24.30;;;11.17;;
38843;SDS011;24596;48.080;8.362;2022-12-18T06:08:10;29.40;;;11.70;;
38843;SDS011;24596;48.080;8.362;2022-12-18T06:10:36;25.10;;;11.43;;
38843;SDS011;24596;48.080;8.362;2022-12-18T06:13:01;31.33;;;12.53;;
38843;SDS011;24596;48.080;8.362;2022-12-18T06:15:27;31.47;;;12.47;;
38843;SDS011;24596;48.080;8.362;2022-12-18T06:17:52;30.40;;;12.87;;
38843;SDS011;24596;48.080;8.362;2022-12-18T06:20:17;32.47;;;13.33;;
38843;SDS011;24596;48.080;8.362;2022-12-18T06:22:42;31.50;;;12.80;;
38843;SDS011;24596;48.080;8.362;2022-12-18T06:25:08;29.03;;;12.50;;
38843;SDS011;24596;48.080;8.362;2022-12-18T06:27:33;27.80;;;11.87;;
38843;SDS011;24596;48.080;8.362;2022-12-18T06:29:59;29.97;;;13.07;;
38843;SDS011;24596;48.080;8.362;2022-12-18T06:32:24;26.47;;;11.27;;
38843;SDS011;24596;48.080;8.362;2022-12-18T06:34:49;25.90;;;10.83;;
38843;SDS011;24596;48.080;8.362;2022-12-18T06:37:15;34.03;;;13.20;;
38843;SDS011;24596;48.080;8.362;2022-12-18T06:39:40;40.50;;;14.67;;
38843;SDS011;24596;48.080;8.362;2022-12-18T06:42:05;43.87;;;16.30;;
38843;SDS011;24596;48.080;8.362;2022-12-18T06:44:30;34.83;;;16.37;;
38843;SDS011;24596;48.080;8.362;2022-12-18T06:46:56;33.70;;;15.03;;
38843;SDS011;24596;48.080;8.362;2022-12-18T06:49:21;39.83;;;15.13;;
38843;SDS011;24596;48.080;8.362;2022-12-18T06:51:46;36.20;;;13.97;;
38843;SDS011;24596;48.080;8.362;2022-12-18T06:54:12;26.57;;;11.53;;
38843;SDS011;24596;48.080;8.362;2022-12-18T06:56:37;32.13;;;13.37;;
38843;SDS011;24596;48.080;8.362;2022-12-18T06:59:02;32.33;;;12.80;;
38843;SDS011;24596;48.080;8.362;2022-12-18T07:01:28;31.90;;;13.40;;
38843;SDS011;24596;48.080;8.362;2022-12-18T07:03:53;38.87;;;16.27;;
38843;SDS011;24596;48.080;8.362;2022-12-18T07:06:20;32.47;;;14.00;;
38843;SDS011;24596;48.080;8.362;2022-12-18T07:08:46;32.90;;;15.10;;
38843;SDS011;24596;48.080;8.362;2022-12-18T07:11:12;33.77;;;15.07;;
38843;SDS011;24596;48.080;8.362;2022-12-18T07:13:37;36.20;;;15.07;;
38843;SDS011;24596;48.080;8.362;2022-12-18T07:16:06;36.73;;;14.50;;
38843;SDS011;24596;48.080;8.362;2022-12-18T07:18:32;34.20;;;14.10;;
38843;SDS011;24596;48.080;8.362;2022-12-18T07:20:57;36.13;;;14.87;;
38843;SDS011;24596;48.080;8.362;2022-12-18T07:23:22;31.33;;;12.30;;
38843;SDS011;24596;48.080;8.362;2022-12-18T07:25:47;31.27;;;13.83;;
38843;SDS011;24596;48.080;8.362;2022-12-18T07:28:13;35.63;;;14.07;;
38843;SDS011;24596;48.080;8.362;2022-12-18T07:30:39;32.40;;;13.30;;
38843;SDS011;24596;48.080;8.362;2022-12-18T07:33:04;30.93;;;12.80;;
38843;SDS011;24596;48.080;8.362;2022-12-18T07:35:30;33.43;;;13.03;;
38843;SDS011;24596;48.080;8.362;2022-12-18T07:37:55;35.03;;;13.10;;
38843;SDS011;24596;48.080;8.362;2022-12-18T07:40:20;34.23;;;14.17;;
38843;SDS011;24596;48.080;8.362;2022-12-18T07:42:45;43.47;;;17.70;;
38843;SDS011;24596;48.080;8.362;2022-12-18T07:45:11;68.17;;;28.27;;
38843;SDS011;24596;48.080;8.362;2022-12-18T07:47:36;83.30;;;30.60;;
38843;SDS011;24596;48.080;8.362;2022-12-18T07:50:02;139.13;;;62.90;;
38843;SDS011;24596;48.080;8.362;2022-12-18T07:52:28;108.37;;;49.73;;
38843;SDS011;24596;48.080;8.362;2022-12-18T07:54:53;89.37;;;43.47;;
38843;SDS011;24596;48.080;8.362;2022-12-18T07:57:18;41.57;;;19.80;;
38843;SDS011;24596;48.080;8.362;2022-12-18T07:59:43;52.60;;;25.83;;
38843;SDS011;24596;48.080;8.362;2022-12-18T08:02:09;53.93;;;28.00;;
38843;SDS011;24596;48.080;8.362;2022-12-18T08:04:34;56.67;;;26.53;;
38843;SDS011;24596;48.080;8.362;2022-12-18T08:06:59;46.80;;;22.63;;
38843;SDS011;24596;48.080;8.362;2022-12-18T08:09:24;39.07;;;18.03;;
38843;SDS011;24596;48.080;8.362;2022-12-18T08:11:50;31.88;;;16.38;;
38843;SDS011;24596;48.080;8.362;2022-12-18T08:14:15;35.33;;;18.25;;
38843;SDS011;24596;48.080;8.362;2022-12-18T08:16:40;29.33;;;15.65;;
38843;SDS011;24596;48.080;8.362;2022-12-18T08:19:05;33.72;;;16.88;;
38843;SDS011;24596;48.080;8.362;2022-12-18T08:21:31;32.83;;;17.15;;
38843;SDS011;24596;48.080;8.362;2022-12-18T08:23:57;30.33;;;15.02;;
38843;SDS011;24596;48.080;8.362;2022-12-18T08:26:23;28.83;;;16.23;;
38843;SDS011;24596;48.080;8.362;2022-12-18T08:28:49;31.33;;;14.48;;
38843;SDS011;24596;48.080;8.362;2022-12-18T08:31:15;27.92;;;14.43;;
38843;SDS011;24596;48.080;8.362;2022-12-18T08:33:40;28.10;;;15.90;;
38843;SDS011;24596;48.080;8.362;2022-12-18T08:36:06;31.90;;;19.88;;
38843;SDS011;24596;48.080;8.362;2022-12-18T08:38:32;34.40;;;21.80;;
38843;SDS011;24596;48.080;8.362;2022-12-18T08:40:58;29.88;;;16.58;;
38843;SDS011;24596;48.080;8.362;2022-12-18T08:43:24;25.55;;;13.82;;
38843;SDS011;24596;48.080;8.362;2022-12-18T08:46:08;25.52;;;13.73;;
38843;SDS011;24596;48.080;8.362;2022-12-18T08:48:33;26.25;;;14.57;;
38843;SDS011;24596;48.080;8.362;2022-12-18T08:50:58;28.33;;;14.48;;
38843;SDS011;24596;48.080;8.362;2022-12-18T08:53:23;26.48;;;14.43;;
38843;SDS011;24596;48.080;8.362;2022-12-18T08:55:49;26.23;;;14.27;;
38843;SDS011;24596;48.080;8.362;2022-12-18T08:58:14;28.45;;;14.02;;
38843;SDS011;24596;48.080;8.362;2022-12-18T09:00:39;27.77;;;14.32;;
38843;SDS011;24596;48.080;8.362;2022-12-18T09:03:04;32.13;;;14.00;;
38843;SDS011;24596;48.080;8.362;2022-12-18T09:05:30;27.65;;;15.48;;
38843;SDS011;24596;48.080;8.362;2022-12-18T09:07:55;25.90;;;14.88;;
38843;SDS011;24596;48.080;8.362;2022-12-18T09:10:20;32.00;;;17.23;;
38843;SDS011;24596;48.080;8.362;2022-12-18T09:12:45;30.73;;;19.02;;
38843;SDS011;24596;48.080;8.362;2022-12-18T09:15:10;32.00;;;19.85;;
38843;SDS011;24596;48.080;8.362;2022-12-18T09:17:36;33.22;;;16.98;;
38843;SDS011;24596;48.080;8.362;2022-12-18T09:20:01;33.20;;;18.05;;
38843;SDS011;24596;48.080;8.362;2022-12-18T09:22:26;27.75;;;15.73;;
38843;SDS011;24596;48.080;8.362;2022-12-18T09:24:52;50.78;;;22.98;;
38843;SDS011;24596;48.080;8.362;2022-12-18T09:27:17;100.80;;;41.60;;
38843;SDS011;24596;48.080;8.362;2022-12-18T09:29:42;100.25;;;40.33;;
38843;SDS011;24596;48.080;8.362;2022-12-18T09:32:07;85.53;;;35.78;;
38843;SDS011;24596;48.080;8.362;2022-12-18T09:34:32;81.93;;;35.33;;
38843;SDS011;24596;48.080;8.362;2022-12-18T09:36:58;79.28;;;33.45;;
38843;SDS011;24596;48.080;8.362;2022-12-18T09:39:23;75.50;;;32.63;;
38843;SDS011;24596;48.080;8.362;2022-12-18T09:46:42;48.17;;;25.15;;
38843;SDS011;24596;48.080;8.362;2022-12-18T09:49:12;42.33;;;22.23;;
38843;SDS011;24596;48.080;8.362;2022-12-18T09:51:45;39.90;;;20.83;;
38843;SDS011;24596;48.080;8.362;2022-12-18T09:54:22;36.85;;;18.05;;
38843;SDS011;24596;48.080;8.362;2022-12-18T09:56:48;34.63;;;17.38;;
38843;SDS011;24596;48.080;8.362;2022-12-18T09:59:17;30.77;;;16.23;;
38843;SDS011;24596;48.080;8.362;2022-12-18T10:01:43;31.23;;;15.95;;
38843;SDS011;24596;48.080;8.362;2022-12-18T10:04:09;35.42;;;17.25;;
38843;SDS011;24596;48.080;8.362;2022-12-18T10:06:39;33.50;;;18.00;;
38843;SDS011;24596;48.080;8.362;2022-12-18T10:09:27;32.53;;;18.85;;
38843;SDS011;24596;48.080;8.362;2022-12-18T10:14:35;34.42;;;19.75;;
38843;SDS011;24596;48.080;8.362;2022-12-18T10:19:50;35.97;;;18.45;;
38843;SDS011;24596;48.080;8.362;2022-12-18T10:24:48;34.40;;;17.60;;
38843;SDS011;24596;48.080;8.362;2022-12-18T10:27:16;33.33;;;17.88;;
38843;SDS011;24596;48.080;8.362;2022-12-18T10:29:45;35.22;;;19.42;;
38843;SDS011;24596;48.080;8.362;2022-12-18T10:32:24;34.83;;;19.35;;
38843;SDS011;24596;48.080;8.362;2022-12-18T10:34:50;32.88;;;18.13;;
38843;SDS011;24596;48.080;8.362;2022-12-18T10:37:20;36.10;;;20.02;;
38843;SDS011;24596;48.080;8.362;2022-12-18T10:40:06;37.80;;;20.10;;
38843;SDS011;24596;48.080;8.362;2022-12-18T10:42:32;37.60;;;20.45;;
38843;SDS011;24596;48.080;8.362;2022-12-18T10:45:02;37.40;;;19.63;;
38843;SDS011;24596;48.080;8.362;2022-12-18T10:47:28;36.70;;;20.63;;
38843;SDS011;24596;48.080;8.362;2022-12-18T10:49:53;37.25;;;21.48;;
38843;SDS011;24596;48.080;8.362;2022-12-18T10:52:21;34.95;;;20.77;;
38843;SDS011;24596;48.080;8.362;2022-12-18T10:54:57;37.75;;;21.17;;
38843;SDS011;24596;48.080;8.362;2022-12-18T10:59:54;38.30;;;21.38;;
38843;SDS011;24596;48.080;8.362;2022-12-18T11:02:27;35.55;;;19.20;;
38843;SDS011;24596;48.080;8.362;2022-12-18T11:04:53;36.75;;;20.73;;
38843;SDS011;24596;48.080;8.362;2022-12-18T11:07:18;33.03;;;18.88;;
38843;SDS011;24596;48.080;8.362;2022-12-18T11:09:43;38.33;;;20.92;;
38843;SDS011;24596;48.080;8.362;2022-12-18T11:12:19;32.22;;;18.45;;
38843;SDS011;24596;48.080;8.362;2022-12-18T11:14:48;35.67;;;19.80;;
38843;SDS011;24596;48.080;8.362;2022-12-18T11:17:48;39.80;;;21.88;;
38843;SDS011;24596;48.080;8.362;2022-12-18T11:20:07;39.30;;;21.33;;
38843;SDS011;24596;48.080;8.362;2022-12-18T11:22:39;38.60;;;21.67;;
38843;SDS011;24596;48.080;8.362;2022-12-18T11:27:36;37.50;;;20.45;;
38843;SDS011;24596;48.080;8.362;2022-12-18T11:30:09;39.47;;;20.67;;
38843;SDS011;24596;48.080;8.362;2022-12-18T11:32:36;38.97;;;20.98;;
38843;SDS011;24596;48.080;8.362;2022-12-18T11:35:04;40.95;;;22.83;;
38843;SDS011;24596;48.080;8.362;2022-12-18T11:37:33;39.90;;;20.77;;
38843;SDS011;24596;48.080;8.362;2022-12-18T11:40:00;36.40;;;19.77;;
38843;SDS011;24596;48.080;8.362;2022-12-18T11:42:30;36.55;;;19.65;;
38843;SDS011;24596;48.080;8.362;2022-12-18T11:45:01;35.72;;;21.05;;
38843;SDS011;24596;48.080;8.362;2022-12-18T11:47:38;34.80;;;19.48;;
38843;SDS011;24596;48.080;8.362;2022-12-18T11:52:58;36.33;;;20.30;;
38843;SDS011;24596;48.080;8.362;2022-12-18T11:55:41;35.78;;;20.38;;
38843;SDS011;24596;48.080;8.362;2022-12-18T11:58:19;34.30;;;19.20;;
38843;SDS011;24596;48.080;8.362;2022-12-18T12:03:51;37.83;;;20.77;;
38843;SDS011;24596;48.080;8.362;2022-12-18T12:19:04;43.97;;;22.73;;
38843;SDS011;24596;48.080;8.362;2022-12-18T12:21:41;42.83;;;23.40;;
38843;SDS011;24596;48.080;8.362;2022-12-18T12:24:43;42.08;;;21.80;;
38843;SDS011;24596;48.080;8.362;2022-12-18T12:34:46;41.92;;;23.23;;
38843;SDS011;24596;48.080;8.362;2022-12-18T12:39:41;43.22;;;23.30;;
38843;SDS011;24596;48.080;8.362;2022-12-18T12:42:51;44.95;;;24.17;;
38843;SDS011;24596;48.080;8.362;2022-12-18T12:45:20;39.08;;;22.67;;
38843;SDS011;24596;48.080;8.362;2022-12-18T12:47:46;42.25;;;23.05;;
38843;SDS011;24596;48.080;8.362;2022-12-18T12:50:14;42.90;;;23.58;;
38843;SDS011;24596;48.080;8.362;2022-12-18T12:52:42;43.90;;;24.35;;
38843;SDS011;24596;48.080;8.362;2022-12-18T12:55:12;40.33;;;23.38;;
38843;SDS011;24596;48.080;8.362;2022-12-18T13:00:31;41.40;;;23.77;;
38843;SDS011;24596;48.080;8.362;2022-12-18T13:05:54;43.15;;;23.98;;
38843;SDS011;24596;48.080;8.362;2022-12-18T13:08:24;45.38;;;25.10;;
38843;SDS011;24596;48.080;8.362;2022-12-18T13:10:52;44.88;;;24.45;;
38843;SDS011;24596;48.080;8.362;2022-12-18T13:13:47;45.05;;;23.88;;
38843;SDS011;24596;48.080;8.362;2022-12-18T13:16:13;43.70;;;23.30;;
38843;SDS011;24596;48.080;8.362;2022-12-18T13:18:48;50.60;;;25.75;;
38843;SDS011;24596;48.080;8.362;2022-12-18T13:21:32;48.13;;;25.48;;
38843;SDS011;24596;48.080;8.362;2022-12-18T13:24:14;45.10;;;23.80;;
38843;SDS011;24596;48.080;8.362;2022-12-18T13:26:39;45.47;;;23.47;;
38843;SDS011;24596;48.080;8.362;2022-12-18T13:29:04;42.33;;;23.67;;
38843;SDS011;24596;48.080;8.362;2022-12-18T13:34:09;48.85;;;25.20;;
38843;SDS011;24596;48.080;8.362;2022-12-18T13:36:38;44.13;;;24.58;;
38843;SDS011;24596;48.080;8.362;2022-12-18T13:39:10;43.35;;;23.98;;
38843;SDS011;24596;48.080;8.362;2022-12-18T13:41:36;46.47;;;23.98;;
38843;SDS011;24596;48.080;8.362;2022-12-18T13:46:46;45.60;;;25.00;;
38843;SDS011;24596;48.080;8.362;2022-12-18T13:51:38;46.40;;;25.08;;
38843;SDS011;24596;48.080;8.362;2022-12-18T13:56:48;48.30;;;25.25;;
38843;SDS011;24596;48.080;8.362;2022-12-18T13:59:24;52.47;;;25.50;;
38843;SDS011;24596;48.080;8.362;2022-12-18T14:06:46;79.80;;;41.43;;
38843;SDS011;24596;48.080;8.362;2022-12-18T14:09:21;55.35;;;27.00;;
38843;SDS011;24596;48.080;8.362;2022-12-18T14:11:49;49.40;;;24.73;;
38843;SDS011;24596;48.080;8.362;2022-12-18T14:14:15;54.45;;;25.17;;
38843;SDS011;24596;48.080;8.362;2022-12-18T14:16:41;50.15;;;24.08;;
38843;SDS011;24596;48.080;8.362;2022-12-18T14:19:08;54.95;;;25.15;;
38843;SDS011;24596;48.080;8.362;2022-12-18T14:21:36;49.20;;;24.33;;
38843;SDS011;24596;48.080;8.362;2022-12-18T14:26:33;54.30;;;26.95;;
38843;SDS011;24596;48.080;8.362;2022-12-18T14:29:44;56.50;;;26.88;;
38843;SDS011;24596;48.080;8.362;2022-12-18T14:31:44;58.88;;;28.13;;
38843;SDS011;24596;48.080;8.362;2022-12-18T14:34:16;55.63;;;26.98;;
38843;SDS011;24596;48.080;8.362;2022-12-18T14:36:44;56.95;;;25.42;;
38843;SDS011;24596;48.080;8.362;2022-12-18T14:39:17;49.97;;;24.42;;
38843;SDS011;24596;48.080;8.362;2022-12-18T14:41:42;54.42;;;24.98;;
38843;SDS011;24596;48.080;8.362;2022-12-18T14:44:07;54.42;;;25.00;;
38843;SDS011;24596;48.080;8.362;2022-12-18T14:46:36;56.30;;;25.25;;
38843;SDS011;24596;48.080;8.362;2022-12-18T14:49:24;51.17;;;23.83;;
38843;SDS011;24596;48.080;8.362;2022-12-18T14:51:52;58.15;;;27.30;;
38843;SDS011;24596;48.080;8.362;2022-12-18T14:54:18;56.50;;;26.15;;
38843;SDS011;24596;48.080;8.362;2022-12-18T14:56:45;57.83;;;27.10;;
38843;SDS011;24596;48.080;8.362;2022-12-18T14:59:19;51.95;;;23.70;;
38843;SDS011;24596;48.080;8.362;2022-12-18T15:01:47;57.70;;;26.55;;
38843;SDS011;24596;48.080;8.362;2022-12-18T15:04:24;56.90;;;25.10;;
38843;SDS011;24596;48.080;8.362;2022-12-18T15:06:50;59.55;;;26.20;;
38843;SDS011;24596;48.080;8.362;2022-12-18T15:09:27;59.53;;;24.50;;
38843;SDS011;24596;48.080;8.362;2022-12-18T15:11:57;71.07;;;29.55;;
38843;SDS011;24596;48.080;8.362;2022-12-18T15:16:51;71.15;;;29.95;;
38843;SDS011;24596;48.080;8.362;2022-12-18T15:19:17;66.60;;;28.77;;
38843;SDS011;24596;48.080;8.362;2022-12-18T15:21:43;79.13;;;32.22;;
38843;SDS011;24596;48.080;8.362;2022-12-18T15:24:15;89.68;;;34.47;;
38843;SDS011;24596;48.080;8.362;2022-12-18T15:26:41;75.95;;;30.77;;
38843;SDS011;24596;48.080;8.362;2022-12-18T15:29:15;60.05;;;26.42;;
38843;SDS011;24596;48.080;8.362;2022-12-18T15:31:42;60.38;;;26.98;;
38843;SDS011;24596;48.080;8.362;2022-12-18T15:36:32;64.82;;;26.85;;
38843;SDS011;24596;48.080;8.362;2022-12-18T15:39:01;63.65;;;28.98;;
38843;SDS011;24596;48.080;8.362;2022-12-18T15:41:27;62.58;;;27.45;;
38843;SDS011;24596;48.080;8.362;2022-12-18T15:43:52;60.17;;;28.13;;
38843;SDS011;24596;48.080;8.362;2022-12-18T15:46:19;58.42;;;26.98;;
38843;SDS011;24596;48.080;8.362;2022-12-18T15:48:45;56.25;;;26.60;;
38843;SDS011;24596;48.080;8.362;2022-12-18T15:51:21;60.90;;;26.83;;
38843;SDS011;24596;48.080;8.362;2022-12-18T15:53:47;57.42;;;26.13;;
38843;SDS011;24596;48.080;8.362;2022-12-18T15:56:13;54.53;;;25.67;;
38843;SDS011;24596;48.080;8.362;2022-12-18T15:58:57;57.83;;;26.02;;
38843;SDS011;24596;48.080;8.362;2022-12-18T16:01:23;60.03;;;25.73;;
38843;SDS011;24596;48.080;8.362;2022-12-18T16:03:49;64.18;;;26.40;;
38843;SDS011;24596;48.080;8.362;2022-12-18T16:06:14;61.28;;;25.67;;
38843;SDS011;24596;48.080;8.362;2022-12-18T16:08:39;60.08;;;25.90;;
38843;SDS011;24596;48.080;8.362;2022-12-18T16:11:05;61.28;;;27.23;;